sensor_id;sensor_type;location;lat;lon;timestamp;temperature;humidity
45765;DHT22;31474;45.332;10.230;2023-04-03T00:01:35;12.70;99.60
45765;DHT22;31474;45.332;10.230;2023-04-03T00:04:02;12.70;99.40
45765;DHT22;31474;45.332;10.230;2023-04-03T00:06:27;12.60;99.40
45765;DHT22;31474;45.332;10.230;2023-04-03T00:08:53;12.60;99.70
45765;DHT22;31474;45.332;10.230;2023-04-03T00:11:19;12.60;99.60
45765;DHT22;31474;45.332;10.230;2023-04-03T00:13:46;12.60;99.60
45765;DHT22;31474;45.332;10.230;2023-04-03T00:16:12;12.50;99.90
45765;DHT22;31474;45.332;10.230;2023-04-03T00:18:39;12.50;99.90
45765;DHT22;31474;45.332;10.230;2023-04-03T00:21:06;12.50;99.90
45765;DHT22;31474;45.332;10.230;2023-04-03T00:23:32;12.40;99.80
45765;DHT22;31474;45.332;10.230;2023-04-03T00:25:58;12.50;99.80
45765;DHT22;31474;45.332;10.230;2023-04-03T00:28:23;12.50;99.90
45765;DHT22;31474;45.332;10.230;2023-04-03T00:30:50;12.50;99.90
45765;DHT22;31474;45.332;10.230;2023-04-03T00:33:15;12.40;99.80
45765;DHT22;31474;45.332;10.230;2023-04-03T00:35:41;12.40;99.60
45765;DHT22;31474;45.332;10.230;2023-04-03T00:38:07;12.40;99.90
45765;DHT22;31474;45.332;10.230;2023-04-03T00:40:38;12.30;99.90
45765;DHT22;31474;45.332;10.230;2023-04-03T00:43:24;12.30;99.90
45765;DHT22;31474;45.332;10.230;2023-04-03T00:45:53;12.40;99.90
45765;DHT22;31474;45.332;10.230;2023-04-03T00:48:27;12.40;99.90
45765;DHT22;31474;45.332;10.230;2023-04-03T00:50:53;12.30;99.90
45765;DHT22;31474;45.332;10.230;2023-04-03T00:53:24;12.30;99.90
45765;DHT22;31474;45.332;10.230;2023-04-03T00:55:51;12.30;99.90
45765;DHT22;31474;45.332;10.230;2023-04-03T00:58:20;12.10;99.90
45765;DHT22;31474;45.332;10.230;2023-04-03T01:00:51;12.10;99.90
45765;DHT22;31474;45.332;10.230;2023-04-03T01:03:21;12.10;99.90
45765;DHT22;31474;45.332;10.230;2023-04-03T01:05:47;12.00;99.90
45765;DHT22;31474;45.332;10.230;2023-04-03T01:08:14;11.90;99.90
45765;DHT22;31474;45.332;10.230;2023-04-03T01:10:39;11.80;99.90
45765;DHT22;31474;45.332;10.230;2023-04-03T01:13:25;11.70;99.90
45765;DHT22;31474;45.332;10.230;2023-04-03T01:15:51;11.70;99.90
45765;DHT22;31474;45.332;10.230;2023-04-03T01:18:17;11.70;99.90
45765;DHT22;31474;45.332;10.230;2023-04-03T01:25:54;11.60;99.90
45765;DHT22;31474;45.332;10.230;2023-04-03T01:28:27;11.50;99.90
45765;DHT22;31474;45.332;10.230;2023-04-03T01:33:24;11.50;99.90
45765;DHT22;31474;45.332;10.230;2023-04-03T01:35:49;11.50;99.90
45765;DHT22;31474;45.332;10.230;2023-04-03T01:38:15;11.50;99.90
45765;DHT22;31474;45.332;10.230;2023-04-03T01:40:41;11.50;99.90
45765;DHT22;31474;45.332;10.230;2023-04-03T01:43:07;11.50;99.90
45765;DHT22;31474;45.332;10.230;2023-04-03T01:45:33;11.50;99.90
45765;DHT22;31474;45.332;10.230;2023-04-03T01:47:59;11.50;99.90
45765;DHT22;31474;45.332;10.230;2023-04-03T01:50:24;11.50;99.90
45765;DHT22;31474;45.332;10.230;2023-04-03T01:52:50;11.40;99.90
45765;DHT22;31474;45.332;10.230;2023-04-03T01:55:16;11.30;99.90
45765;DHT22;31474;45.332;10.230;2023-04-03T01:57:42;11.10;99.90
45765;DHT22;31474;45.332;10.230;2023-04-03T02:00:08;11.10;99.90
45765;DHT22;31474;45.332;10.230;2023-04-03T02:02:34;10.90;99.90
45765;DHT22;31474;45.332;10.230;2023-04-03T02:05:00;10.90;99.90
45765;DHT22;31474;45.332;10.230;2023-04-03T02:07:26;10.80;99.90
45765;DHT22;31474;45.332;10.230;2023-04-03T02:09:52;11.00;99.90
45765;DHT22;31474;45.332;10.230;2023-04-03T02:12:18;11.00;99.90
45765;DHT22;31474;45.332;10.230;2023-04-03T02:14:44;11.00;99.90
45765;DHT22;31474;45.332;10.230;2023-04-03T02:17:09;11.00;99.90
45765;DHT22;31474;45.332;10.230;2023-04-03T02:19:35;10.90;99.90
45765;DHT22;31474;45.332;10.230;2023-04-03T02:22:02;10.90;99.90
45765;DHT22;31474;45.332;10.230;2023-04-03T02:24:28;10.90;99.90
45765;DHT22;31474;45.332;10.230;2023-04-03T02:26:54;10.90;99.90
45765;DHT22;31474;45.332;10.230;2023-04-03T02:29:20;11.00;99.90
45765;DHT22;31474;45.332;10.230;2023-04-03T02:31:45;11.00;99.90
45765;DHT22;31474;45.332;10.230;2023-04-03T02:34:11;10.90;99.90
45765;DHT22;31474;45.332;10.230;2023-04-03T02:36:37;10.70;99.90
45765;DHT22;31474;45.332;10.230;2023-04-03T02:39:03;10.60;99.90
45765;DHT22;31474;45.332;10.230;2023-04-03T02:41:29;10.60;99.90
45765;DHT22;31474;45.332;10.230;2023-04-03T02:44:01;10.70;99.90
45765;DHT22;31474;45.332;10.230;2023-04-03T02:46:27;10.60;99.90
45765;DHT22;31474;45.332;10.230;2023-04-03T02:48:52;10.70;99.90
45765;DHT22;31474;45.332;10.230;2023-04-03T02:51:18;10.70;99.90
45765;DHT22;31474;45.332;10.230;2023-04-03T02:53:43;10.80;99.90
45765;DHT22;31474;45.332;10.230;2023-04-03T02:56:09;10.80;99.90
45765;DHT22;31474;45.332;10.230;2023-04-03T02:58:35;10.80;99.90
45765;DHT22;31474;45.332;10.230;2023-04-03T03:01:01;10.80;99.90
45765;DHT22;31474;45.332;10.230;2023-04-03T03:03:26;10.80;99.90
45765;DHT22;31474;45.332;10.230;2023-04-03T03:06:13;10.70;99.90
45765;DHT22;31474;45.332;10.230;2023-04-03T03:08:39;10.70;99.90
45765;DHT22;31474;45.332;10.230;2023-04-03T03:11:05;10.60;99.90
45765;DHT22;31474;45.332;10.230;2023-04-03T03:13:31;10.40;99.90
45765;DHT22;31474;45.332;10.230;2023-04-03T03:15:57;10.30;99.90
45765;DHT22;31474;45.332;10.230;2023-04-03T03:18:23;10.10;99.90
45765;DHT22;31474;45.332;10.230;2023-04-03T03:20:56;10.00;99.90
45765;DHT22;31474;45.332;10.230;2023-04-03T03:23:24;10.00;99.90
45765;DHT22;31474;45.332;10.230;2023-04-03T03:26:15;10.00;99.90
45765;DHT22;31474;45.332;10.230;2023-04-03T03:28:40;10.10;99.90
45765;DHT22;31474;45.332;10.230;2023-04-03T03:31:06;10.20;99.90
45765;DHT22;31474;45.332;10.230;2023-04-03T03:33:32;10.30;99.90
45765;DHT22;31474;45.332;10.230;2023-04-03T03:35:58;10.30;99.90
45765;DHT22;31474;45.332;10.230;2023-04-03T03:38:24;10.30;99.90
45765;DHT22;31474;45.332;10.230;2023-04-03T03:40:50;10.30;99.90
45765;DHT22;31474;45.332;10.230;2023-04-03T03:43:16;10.30;99.90
45765;DHT22;31474;45.332;10.230;2023-04-03T03:45:42;10.30;99.90
45765;DHT22;31474;45.332;10.230;2023-04-03T03:48:08;10.30;99.90
45765;DHT22;31474;45.332;10.230;2023-04-03T03:50:34;10.30;99.90
45765;DHT22;31474;45.332;10.230;2023-04-03T03:53:00;10.20;99.90
45765;DHT22;31474;45.332;10.230;2023-04-03T03:55:25;10.10;99.90
45765;DHT22;31474;45.332;10.230;2023-04-03T03:57:51;10.10;99.90
45765;DHT22;31474;45.332;10.230;2023-04-03T04:00:17;10.10;99.90
45765;DHT22;31474;45.332;10.230;2023-04-03T04:02:43;10.10;99.90
45765;DHT22;31474;45.332;10.230;2023-04-03T04:05:09;10.20;99.90
45765;DHT22;31474;45.332;10.230;2023-04-03T04:07:35;10.20;99.90
45765;DHT22;31474;45.332;10.230;2023-04-03T04:10:00;10.30;99.90
45765;DHT22;31474;45.332;10.230;2023-04-03T04:12:26;10.30;99.90
45765;DHT22;31474;45.332;10.230;2023-04-03T04:14:52;10.30;99.90
45765;DHT22;31474;45.332;10.230;2023-04-03T04:17:18;10.30;99.90
45765;DHT22;31474;45.332;10.230;2023-04-03T04:19:45;10.30;99.90
45765;DHT22;31474;45.332;10.230;2023-04-03T04:22:10;10.20;99.90
45765;DHT22;31474;45.332;10.230;2023-04-03T04:24:37;10.10;99.90
45765;DHT22;31474;45.332;10.230;2023-04-03T04:27:03;10.10;99.90
45765;DHT22;31474;45.332;10.230;2023-04-03T04:29:28;10.10;99.90
45765;DHT22;31474;45.332;10.230;2023-04-03T04:31:54;10.10;99.90
45765;DHT22;31474;45.332;10.230;2023-04-03T04:34:20;10.10;99.90
45765;DHT22;31474;45.332;10.230;2023-04-03T04:36:46;10.10;99.90
45765;DHT22;31474;45.332;10.230;2023-04-03T04:39:12;10.10;99.90
45765;DHT22;31474;45.332;10.230;2023-04-03T04:41:37;10.10;99.90
45765;DHT22;31474;45.332;10.230;2023-04-03T04:44:03;10.10;99.90
45765;DHT22;31474;45.332;10.230;2023-04-03T04:46:29;10.20;99.90
45765;DHT22;31474;45.332;10.230;2023-04-03T04:48:54;10.20;99.90
45765;DHT22;31474;45.332;10.230;2023-04-03T04:51:20;10.20;99.90
45765;DHT22;31474;45.332;10.230;2023-04-03T04:53:46;10.20;99.90
45765;DHT22;31474;45.332;10.230;2023-04-03T04:56:12;10.10;99.90
45765;DHT22;31474;45.332;10.230;2023-04-03T04:58:37;10.10;99.90
45765;DHT22;31474;45.332;10.230;2023-04-03T05:01:08;10.20;99.90
45765;DHT22;31474;45.332;10.230;2023-04-03T05:03:34;10.20;99.90
45765;DHT22;31474;45.332;10.230;2023-04-03T05:06:00;10.30;99.90
45765;DHT22;31474;45.332;10.230;2023-04-03T05:08:26;10.30;99.90
45765;DHT22;31474;45.332;10.230;2023-04-03T05:10:52;10.20;99.90
45765;DHT22;31474;45.332;10.230;2023-04-03T05:13:19;10.30;99.90
45765;DHT22;31474;45.332;10.230;2023-04-03T05:15:45;10.30;99.90
45765;DHT22;31474;45.332;10.230;2023-04-03T05:18:11;10.30;99.90
45765;DHT22;31474;45.332;10.230;2023-04-03T05:20:37;10.30;99.90
45765;DHT22;31474;45.332;10.230;2023-04-03T05:23:03;10.30;99.90
45765;DHT22;31474;45.332;10.230;2023-04-03T05:25:28;10.30;99.90
45765;DHT22;31474;45.332;10.230;2023-04-03T05:27:55;10.20;99.90
45765;DHT22;31474;45.332;10.230;2023-04-03T05:30:21;10.40;99.90
45765;DHT22;31474;45.332;10.230;2023-04-03T05:32:46;10.40;99.90
45765;DHT22;31474;45.332;10.230;2023-04-03T05:35:12;10.40;99.90
45765;DHT22;31474;45.332;10.230;2023-04-03T05:37:38;10.50;99.90
45765;DHT22;31474;45.332;10.230;2023-04-03T05:40:05;10.50;99.90
45765;DHT22;31474;45.332;10.230;2023-04-03T05:42:31;10.50;99.90
45765;DHT22;31474;45.332;10.230;2023-04-03T05:44:57;10.50;99.90
45765;DHT22;31474;45.332;10.230;2023-04-03T05:47:23;10.60;99.90
45765;DHT22;31474;45.332;10.230;2023-04-03T05:49:48;10.50;99.90
45765;DHT22;31474;45.332;10.230;2023-04-03T05:54:51;10.30;99.90
45765;DHT22;31474;45.332;10.230;2023-04-03T05:57:17;10.30;99.90
45765;DHT22;31474;45.332;10.230;2023-04-03T05:59:44;10.40;99.90
45765;DHT22;31474;45.332;10.230;2023-04-03T06:02:16;10.50;99.90
45765;DHT22;31474;45.332;10.230;2023-04-03T06:04:42;10.70;99.90
45765;DHT22;31474;45.332;10.230;2023-04-03T06:07:18;11.00;99.90
45765;DHT22;31474;45.332;10.230;2023-04-03T06:09:47;11.20;99.90
45765;DHT22;31474;45.332;10.230;2023-04-03T06:12:12;11.40;99.90
45765;DHT22;31474;45.332;10.230;2023-04-03T06:14:38;11.50;99.90
45765;DHT22;31474;45.332;10.230;2023-04-03T06:17:04;11.70;99.90
45765;DHT22;31474;45.332;10.230;2023-04-03T06:19:32;11.90;99.90
45765;DHT22;31474;45.332;10.230;2023-04-03T06:21:58;12.10;99.90
45765;DHT22;31474;45.332;10.230;2023-04-03T06:24:24;12.30;99.90
45765;DHT22;31474;45.332;10.230;2023-04-03T06:26:51;12.40;99.90
45765;DHT22;31474;45.332;10.230;2023-04-03T06:29:18;12.60;99.90
45765;DHT22;31474;45.332;10.230;2023-04-03T06:31:44;12.90;99.90
45765;DHT22;31474;45.332;10.230;2023-04-03T06:34:11;13.10;99.90
45765;DHT22;31474;45.332;10.230;2023-04-03T06:36:37;13.10;99.90
45765;DHT22;31474;45.332;10.230;2023-04-03T06:39:04;13.20;99.90
45765;DHT22;31474;45.332;10.230;2023-04-03T06:41:30;13.30;99.80
45765;DHT22;31474;45.332;10.230;2023-04-03T06:43:56;13.40;99.60
45765;DHT22;31474;45.332;10.230;2023-04-03T06:46:24;13.40;99.30
45765;DHT22;31474;45.332;10.230;2023-04-03T06:48:51;13.50;99.30
45765;DHT22;31474;45.332;10.230;2023-04-03T06:53:44;13.90;99.30
45765;DHT22;31474;45.332;10.230;2023-04-03T06:56:11;14.10;99.00
45765;DHT22;31474;45.332;10.230;2023-04-03T06:58:37;14.20;98.50
45765;DHT22;31474;45.332;10.230;2023-04-03T07:01:02;14.20;98.80
45765;DHT22;31474;45.332;10.230;2023-04-03T07:03:28;14.30;98.70
45765;DHT22;31474;45.332;10.230;2023-04-03T07:05:54;14.50;99.10
45765;DHT22;31474;45.332;10.230;2023-04-03T07:08:20;14.70;98.70
45765;DHT22;31474;45.332;10.230;2023-04-03T07:10:48;14.80;97.90
45765;DHT22;31474;45.332;10.230;2023-04-03T07:13:14;15.00;98.10
45765;DHT22;31474;45.332;10.230;2023-04-03T07:15:40;15.10;97.40
45765;DHT22;31474;45.332;10.230;2023-04-03T07:18:05;15.20;97.20
45765;DHT22;31474;45.332;10.230;2023-04-03T07:20:31;15.30;97.20
45765;DHT22;31474;45.332;10.230;2023-04-03T07:22:57;15.50;97.10
45765;DHT22;31474;45.332;10.230;2023-04-03T07:25:22;15.30;96.80
45765;DHT22;31474;45.332;10.230;2023-04-03T07:27:48;15.20;97.40
45765;DHT22;31474;45.332;10.230;2023-04-03T07:30:14;15.30;97.60
45765;DHT22;31474;45.332;10.230;2023-04-03T07:32:40;15.30;97.00
45765;DHT22;31474;45.332;10.230;2023-04-03T07:35:06;15.40;97.20
45765;DHT22;31474;45.332;10.230;2023-04-03T07:37:32;15.40;97.60
45765;DHT22;31474;45.332;10.230;2023-04-03T07:39:58;15.60;97.80
45765;DHT22;31474;45.332;10.230;2023-04-03T07:42:25;15.70;97.60
45765;DHT22;31474;45.332;10.230;2023-04-03T07:44:53;15.90;97.00
45765;DHT22;31474;45.332;10.230;2023-04-03T07:47:19;16.10;96.90
45765;DHT22;31474;45.332;10.230;2023-04-03T07:49:45;16.30;96.80
45765;DHT22;31474;45.332;10.230;2023-04-03T07:52:11;16.10;95.50
45765;DHT22;31474;45.332;10.230;2023-04-03T07:54:37;16.10;95.90
45765;DHT22;31474;45.332;10.230;2023-04-03T07:57:03;16.00;95.50
45765;DHT22;31474;45.332;10.230;2023-04-03T07:59:29;16.00;95.20
45765;DHT22;31474;45.332;10.230;2023-04-03T08:01:55;16.00;94.70
45765;DHT22;31474;45.332;10.230;2023-04-03T08:04:21;16.10;94.70
45765;DHT22;31474;45.332;10.230;2023-04-03T08:06:46;16.10;93.80
45765;DHT22;31474;45.332;10.230;2023-04-03T08:09:13;16.20;94.70
45765;DHT22;31474;45.332;10.230;2023-04-03T08:11:39;16.30;94.50
45765;DHT22;31474;45.332;10.230;2023-04-03T08:14:05;16.40;94.00
45765;DHT22;31474;45.332;10.230;2023-04-03T08:16:31;16.40;94.40
45765;DHT22;31474;45.332;10.230;2023-04-03T08:18:57;16.50;94.20
45765;DHT22;31474;45.332;10.230;2023-04-03T08:21:23;16.30;93.70
45765;DHT22;31474;45.332;10.230;2023-04-03T08:23:51;16.40;94.10
45765;DHT22;31474;45.332;10.230;2023-04-03T08:26:19;16.50;94.10
45765;DHT22;31474;45.332;10.230;2023-04-03T08:28:47;16.50;93.90
45765;DHT22;31474;45.332;10.230;2023-04-03T08:31:15;16.50;94.00
45765;DHT22;31474;45.332;10.230;2023-04-03T08:33:42;16.60;94.20
45765;DHT22;31474;45.332;10.230;2023-04-03T08:38:45;16.80;93.90
45765;DHT22;31474;45.332;10.230;2023-04-03T08:49:43;16.90;92.90
45765;DHT22;31474;45.332;10.230;2023-04-03T08:52:59;16.90;92.60
45765;DHT22;31474;45.332;10.230;2023-04-03T08:55:33;17.00;92.90
45765;DHT22;31474;45.332;10.230;2023-04-03T09:00:32;17.20;92.80
45765;DHT22;31474;45.332;10.230;2023-04-03T09:02:59;17.20;92.00
45765;DHT22;31474;45.332;10.230;2023-04-03T09:05:41;17.30;92.00
45765;DHT22;31474;45.332;10.230;2023-04-03T09:08:28;17.30;91.80
45765;DHT22;31474;45.332;10.230;2023-04-03T09:11:06;17.20;92.00
45765;DHT22;31474;45.332;10.230;2023-04-03T09:13:49;17.30;91.80
45765;DHT22;31474;45.332;10.230;2023-04-03T09:19:20;17.30;92.00
45765;DHT22;31474;45.332;10.230;2023-04-03T09:21:47;17.50;91.80
45765;DHT22;31474;45.332;10.230;2023-04-03T09:24:15;17.60;91.50
45765;DHT22;31474;45.332;10.230;2023-04-03T09:26:55;17.50;91.40
45765;DHT22;31474;45.332;10.230;2023-04-03T09:29:22;17.40;91.40
45765;DHT22;31474;45.332;10.230;2023-04-03T09:31:50;17.40;91.40
45765;DHT22;31474;45.332;10.230;2023-04-03T09:36:49;17.60;91.80
45765;DHT22;31474;45.332;10.230;2023-04-03T09:39:24;17.60;91.50
45765;DHT22;31474;45.332;10.230;2023-04-03T09:42:17;17.70;91.60
45765;DHT22;31474;45.332;10.230;2023-04-03T09:44:54;17.60;90.70
45765;DHT22;31474;45.332;10.230;2023-04-03T09:47:25;17.60;91.10
45765;DHT22;31474;45.332;10.230;2023-04-03T09:52:44;17.70;90.20
45765;DHT22;31474;45.332;10.230;2023-04-03T09:55:18;17.60;89.80
45765;DHT22;31474;45.332;10.230;2023-04-03T09:57:45;17.60;89.10
45765;DHT22;31474;45.332;10.230;2023-04-03T10:00:33;17.70;90.50
45765;DHT22;31474;45.332;10.230;2023-04-03T10:02:59;17.80;90.70
45765;DHT22;31474;45.332;10.230;2023-04-03T10:05:33;17.90;91.00
45765;DHT22;31474;45.332;10.230;2023-04-03T10:10:45;17.90;91.10
45765;DHT22;31474;45.332;10.230;2023-04-03T10:16:06;17.80;91.10
45765;DHT22;31474;45.332;10.230;2023-04-03T10:18:41;17.80;91.20
45765;DHT22;31474;45.332;10.230;2023-04-03T10:21:29;17.80;91.00
45765;DHT22;31474;45.332;10.230;2023-04-03T10:29:06;17.90;91.40
45765;DHT22;31474;45.332;10.230;2023-04-03T10:31:53;17.90;91.30
45765;DHT22;31474;45.332;10.230;2023-04-03T10:34:47;18.00;92.00
45765;DHT22;31474;45.332;10.230;2023-04-03T10:37:24;18.00;91.70
45765;DHT22;31474;45.332;10.230;2023-04-03T10:57:55;17.80;91.10
45765;DHT22;31474;45.332;10.230;2023-04-03T11:03:05;17.90;90.00
45765;DHT22;31474;45.332;10.230;2023-04-03T11:05:37;17.80;90.10
45765;DHT22;31474;45.332;10.230;2023-04-03T11:10:46;17.60;89.10
45765;DHT22;31474;45.332;10.230;2023-04-03T11:13:14;17.60;89.10
45765;DHT22;31474;45.332;10.230;2023-04-03T11:15:43;17.40;89.00
45765;DHT22;31474;45.332;10.230;2023-04-03T11:18:17;17.60;89.00
45765;DHT22;31474;45.332;10.230;2023-04-03T11:21:16;17.60;88.90
45765;DHT22;31474;45.332;10.230;2023-04-03T11:23:40;17.50;89.10
45765;DHT22;31474;45.332;10.230;2023-04-03T11:26:18;17.50;88.40
45765;DHT22;31474;45.332;10.230;2023-04-03T11:28:46;17.50;88.00
45765;DHT22;31474;45.332;10.230;2023-04-03T11:34:37;17.70;87.40
45765;DHT22;31474;45.332;10.230;2023-04-03T11:37:31;17.80;88.00
45765;DHT22;31474;45.332;10.230;2023-04-03T11:40:28;17.80;87.90
45765;DHT22;31474;45.332;10.230;2023-04-03T11:50:47;17.80;87.90
45765;DHT22;31474;45.332;10.230;2023-04-03T11:58:20;17.80;88.00
45765;DHT22;31474;45.332;10.230;2023-04-03T12:00:48;17.70;88.10
45765;DHT22;31474;45.332;10.230;2023-04-03T12:16:31;17.90;90.00
45765;DHT22;31474;45.332;10.230;2023-04-03T12:19:01;17.80;88.70
45765;DHT22;31474;45.332;10.230;2023-04-03T12:29:10;18.00;89.10
45765;DHT22;31474;45.332;10.230;2023-04-03T12:40:15;17.80;89.80
45765;DHT22;31474;45.332;10.230;2023-04-03T12:42:51;17.80;90.00
45765;DHT22;31474;45.332;10.230;2023-04-03T12:45:23;17.80;89.10
45765;DHT22;31474;45.332;10.230;2023-04-03T12:47:54;17.70;89.00
45765;DHT22;31474;45.332;10.230;2023-04-03T12:50:31;17.60;89.80
45765;DHT22;31474;45.332;10.230;2023-04-03T12:53:07;17.40;90.00
45765;DHT22;31474;45.332;10.230;2023-04-03T12:55:36;17.40;89.90
45765;DHT22;31474;45.332;10.230;2023-04-03T12:58:16;17.50;89.70
45765;DHT22;31474;45.332;10.230;2023-04-03T13:00:42;17.60;88.40
45765;DHT22;31474;45.332;10.230;2023-04-03T13:03:24;17.60;89.70
45765;DHT22;31474;45.332;10.230;2023-04-03T13:05:54;17.60;89.20
45765;DHT22;31474;45.332;10.230;2023-04-03T13:08:20;17.50;89.40
45765;DHT22;31474;45.332;10.230;2023-04-03T13:10:55;17.30;89.60
45765;DHT22;31474;45.332;10.230;2023-04-03T13:13:21;17.50;90.00
45765;DHT22;31474;45.332;10.230;2023-04-03T13:15:48;17.60;88.40
45765;DHT22;31474;45.332;10.230;2023-04-03T13:18:34;17.80;89.40
45765;DHT22;31474;45.332;10.230;2023-04-03T13:21:11;17.60;86.70
45765;DHT22;31474;45.332;10.230;2023-04-03T13:23:41;17.80;88.00
45765;DHT22;31474;45.332;10.230;2023-04-03T13:26:08;17.50;88.20
45765;DHT22;31474;45.332;10.230;2023-04-03T13:28:35;17.30;88.60
45765;DHT22;31474;45.332;10.230;2023-04-03T13:31:25;17.20;89.20
45765;DHT22;31474;45.332;10.230;2023-04-03T13:33:55;17.10;87.60
45765;DHT22;31474;45.332;10.230;2023-04-03T13:36:24;17.30;89.10
45765;DHT22;31474;45.332;10.230;2023-04-03T13:39:23;17.50;88.70
45765;DHT22;31474;45.332;10.230;2023-04-03T13:41:58;17.60;88.30
45765;DHT22;31474;45.332;10.230;2023-04-03T13:44:33;17.70;89.10
45765;DHT22;31474;45.332;10.230;2023-04-03T13:47:22;17.60;87.40
45765;DHT22;31474;45.332;10.230;2023-04-03T13:52:43;17.40;87.10
45765;DHT22;31474;45.332;10.230;2023-04-03T13:55:33;17.10;87.20
45765;DHT22;31474;45.332;10.230;2023-04-03T14:00:50;17.20;87.90
45765;DHT22;31474;45.332;10.230;2023-04-03T14:03:37;17.20;87.60
45765;DHT22;31474;45.332;10.230;2023-04-03T14:06:05;17.30;88.80
45765;DHT22;31474;45.332;10.230;2023-04-03T14:08:32;17.40;88.70
45765;DHT22;31474;45.332;10.230;2023-04-03T14:10:58;17.40;88.30
45765;DHT22;31474;45.332;10.230;2023-04-03T14:13:24;17.40;88.20
45765;DHT22;31474;45.332;10.230;2023-04-03T14:15:50;17.60;87.20
45765;DHT22;31474;45.332;10.230;2023-04-03T14:18:18;17.50;87.80
45765;DHT22;31474;45.332;10.230;2023-04-03T14:20:45;17.30;87.20
45765;DHT22;31474;45.332;10.230;2023-04-03T14:23:11;17.40;88.30
45765;DHT22;31474;45.332;10.230;2023-04-03T14:25:37;17.40;88.50
45765;DHT22;31474;45.332;10.230;2023-04-03T14:28:22;17.30;87.30
45765;DHT22;31474;45.332;10.230;2023-04-03T14:30:49;17.20;87.50
45765;DHT22;31474;45.332;10.230;2023-04-03T14:33:19;17.20;87.90
45765;DHT22;31474;45.332;10.230;2023-04-03T14:35:45;17.10;87.70
45765;DHT22;31474;45.332;10.230;2023-04-03T14:38:26;17.10;87.80
45765;DHT22;31474;45.332;10.230;2023-04-03T14:40:53;17.30;88.10
45765;DHT22;31474;45.332;10.230;2023-04-03T14:43:19;17.40;87.90
45765;DHT22;31474;45.332;10.230;2023-04-03T14:45:46;17.30;87.80
45765;DHT22;31474;45.332;10.230;2023-04-03T14:48:19;17.30;87.00
45765;DHT22;31474;45.332;10.230;2023-04-03T14:50:45;17.20;87.70
45765;DHT22;31474;45.332;10.230;2023-04-03T14:53:12;17.30;88.10
45765;DHT22;31474;45.332;10.230;2023-04-03T14:55:41;17.20;87.10
45765;DHT22;31474;45.332;10.230;2023-04-03T14:58:16;17.10;87.70
45765;DHT22;31474;45.332;10.230;2023-04-03T15:00:43;16.90;87.40
45765;DHT22;31474;45.332;10.230;2023-04-03T15:03:21;16.80;87.90
45765;DHT22;31474;45.332;10.230;2023-04-03T15:05:48;16.90;86.70
45765;DHT22;31474;45.332;10.230;2023-04-03T15:08:25;17.00;88.00
45765;DHT22;31474;45.332;10.230;2023-04-03T15:10:52;17.10;87.30
45765;DHT22;31474;45.332;10.230;2023-04-03T15:13:19;17.00;87.40
45765;DHT22;31474;45.332;10.230;2023-04-03T15:15:45;16.90;87.80
45765;DHT22;31474;45.332;10.230;2023-04-03T15:18:19;16.80;87.80
45765;DHT22;31474;45.332;10.230;2023-04-03T15:20:45;16.60;86.70
45765;DHT22;31474;45.332;10.230;2023-04-03T15:23:12;16.60;87.30
45765;DHT22;31474;45.332;10.230;2023-04-03T15:25:47;16.60;87.40
45765;DHT22;31474;45.332;10.230;2023-04-03T15:28:28;16.50;86.60
45765;DHT22;31474;45.332;10.230;2023-04-03T15:30:55;16.60;86.70
45765;DHT22;31474;45.332;10.230;2023-04-03T15:33:21;16.60;87.00
45765;DHT22;31474;45.332;10.230;2023-04-03T15:35:47;16.50;86.70
45765;DHT22;31474;45.332;10.230;2023-04-03T15:38:13;16.50;86.70
45765;DHT22;31474;45.332;10.230;2023-04-03T15:40:39;16.40;86.60
45765;DHT22;31474;45.332;10.230;2023-04-03T15:43:06;16.30;87.30
45765;DHT22;31474;45.332;10.230;2023-04-03T15:45:32;16.30;87.30
45765;DHT22;31474;45.332;10.230;2023-04-03T15:47:59;16.20;86.90
45765;DHT22;31474;45.332;10.230;2023-04-03T15:50:25;16.30;87.80
45765;DHT22;31474;45.332;10.230;2023-04-03T15:52:52;16.40;86.70
45765;DHT22;31474;45.332;10.230;2023-04-03T15:55:25;16.40;87.00
45765;DHT22;31474;45.332;10.230;2023-04-03T15:57:52;16.40;86.50
45765;DHT22;31474;45.332;10.230;2023-04-03T16:00:18;16.40;86.50
45765;DHT22;31474;45.332;10.230;2023-04-03T16:02:45;16.40;86.40
45765;DHT22;31474;45.332;10.230;2023-04-03T16:05:12;16.40;86.30
45765;DHT22;31474;45.332;10.230;2023-04-03T16:07:41;16.50;87.20
45765;DHT22;31474;45.332;10.230;2023-04-03T16:10:08;16.40;87.10
45765;DHT22;31474;45.332;10.230;2023-04-03T16:12:35;16.40;86.20
45765;DHT22;31474;45.332;10.230;2023-04-03T16:15:00;16.40;86.40
45765;DHT22;31474;45.332;10.230;2023-04-03T16:17:27;16.30;86.60
45765;DHT22;31474;45.332;10.230;2023-04-03T16:19:54;16.30;86.10
45765;DHT22;31474;45.332;10.230;2023-04-03T16:22:20;16.30;86.40
45765;DHT22;31474;45.332;10.230;2023-04-03T16:24:46;16.30;87.10
45765;DHT22;31474;45.332;10.230;2023-04-03T16:27:12;16.20;87.10
45765;DHT22;31474;45.332;10.230;2023-04-03T16:29:37;16.10;86.70
45765;DHT22;31474;45.332;10.230;2023-04-03T16:32:03;16.10;87.20
45765;DHT22;31474;45.332;10.230;2023-04-03T16:34:29;16.00;87.10
45765;DHT22;31474;45.332;10.230;2023-04-03T16:36:57;15.90;87.50
45765;DHT22;31474;45.332;10.230;2023-04-03T16:39:23;15.90;87.30
45765;DHT22;31474;45.332;10.230;2023-04-03T16:41:48;15.80;86.80
45765;DHT22;31474;45.332;10.230;2023-04-03T16:44:14;15.80;86.90
45765;DHT22;31474;45.332;10.230;2023-04-03T16:46:40;15.60;86.00
45765;DHT22;31474;45.332;10.230;2023-04-03T16:49:06;15.50;86.90
45765;DHT22;31474;45.332;10.230;2023-04-03T16:51:32;15.50;87.50
45765;DHT22;31474;45.332;10.230;2023-04-03T16:53:57;15.60;87.50
45765;DHT22;31474;45.332;10.230;2023-04-03T16:56:24;15.50;87.60
45765;DHT22;31474;45.332;10.230;2023-04-03T16:58:50;15.50;87.70
45765;DHT22;31474;45.332;10.230;2023-04-03T17:01:17;15.50;87.30
45765;DHT22;31474;45.332;10.230;2023-04-03T17:03:44;15.40;87.90
45765;DHT22;31474;45.332;10.230;2023-04-03T17:06:12;15.40;87.70
45765;DHT22;31474;45.332;10.230;2023-04-03T17:08:46;15.40;87.70
45765;DHT22;31474;45.332;10.230;2023-04-03T17:11:12;15.30;86.50
45765;DHT22;31474;45.332;10.230;2023-04-03T17:13:38;15.20;87.00
45765;DHT22;31474;45.332;10.230;2023-04-03T17:16:06;15.10;86.90
45765;DHT22;31474;45.332;10.230;2023-04-03T17:18:33;15.10;86.70
45765;DHT22;31474;45.332;10.230;2023-04-03T17:20:59;15.10;87.10
45765;DHT22;31474;45.332;10.230;2023-04-03T17:23:27;15.10;87.20
45765;DHT22;31474;45.332;10.230;2023-04-03T17:25:54;15.10;87.50